Time;durP1;ratioP1;P1;durP2;ratioP2;P2;SDS_P1;SDS_P2;PMS_P1;PMS_P2;Temp;Humidity;BMP_temperature;BMP_pressure;BME280_temperature;BME280_humidity;BME280_pressure;Samples;Min_cycle;Max_cycle;Signal;HPM_P1;HPM_P2
2023/08/07 00:01:21;661765.00;2.21;1141.00;50367.00;0.17;87.82;;;;;14.10;8.20;;;;;;2276292;61;1662;-88
2023/08/07 00:03:48;448317.00;1.49;772.89;82480.00;0.27;143.32;;;;;14.00;7.60;;;;;;2276328;61;1640;-86
2023/08/07 00:11:43;2065070.00;6.88;3758.80;200333.00;0.67;346.50;;;;;13.80;8.60;;;;;;2274011;61;1964;-86
2023/08/07 00:14:10;1204541.00;4.02;2098.43;132048.00;0.44;228.86;;;;;13.90;8.20;;;;;;2295114;56;3785;-87
2023/08/07 00:16:37;554858.00;1.85;956.33;79021.00;0.26;137.35;;;;;13.90;7.30;;;;;;2292262;40;3550;-85
2023/08/07 00:19:04;437041.00;1.46;753.49;75822.00;0.25;131.82;;;;;14.10;6.90;;;;;;2276366;61;1730;-88
2023/08/07 00:21:31;293436.00;0.98;506.64;0.00;0.00;0.62;;;;;14.00;6.70;;;;;;2283615;40;3583;-87
2023/08/07 00:23:58;190630.00;0.64;329.79;0.00;0.00;0.62;;;;;14.20;6.50;;;;;;2288771;40;3625;-87
2023/08/07 00:28:54;761175.00;2.54;1313.49;0.00;0.00;0.62;;;;;14.10;6.00;;;;;;2281819;61;1410;-88
2023/08/07 00:31:21;286998.00;0.96;495.57;13223.00;0.04;23.53;;;;;14.10;5.40;;;;;;2286198;55;3753;-86
2023/08/07 00:33:51;423832.00;1.41;730.78;0.00;0.00;0.62;;;;;14.20;5.30;;;;;;2291440;40;3641;-87
2023/08/07 00:38:47;646572.00;2.16;1114.71;0.00;0.00;0.62;;;;;14.10;5.60;;;;;;2282039;61;1426;-86
2023/08/07 00:41:14;338015.00;1.13;583.26;40113.00;0.13;70.08;;;;;14.20;5.10;;;;;;2280283;61;1690;-86
2023/08/07 00:43:41;197573.00;0.66;341.75;0.00;0.00;0.62;;;;;14.20;5.40;;;;;;2284455;39;3830;-87
2023/08/07 00:46:10;230108.00;0.77;397.73;0.00;0.00;0.62;;;;;14.20;4.70;;;;;;2276244;61;1170;-86
2023/08/07 00:51:07;998901.00;3.33;1730.53;15824.00;0.05;28.04;;;;;14.40;4.20;;;;;;2287227;39;3521;-86
2023/08/07 00:53:36;942123.00;3.14;1630.23;117352.00;0.39;203.51;;;;;14.40;4.60;;;;;;2293234;55;3677;-86
2023/08/07 00:58:34;3150738.00;10.50;6317.04;267544.00;0.89;462.12;;;;;14.20;4.90;;;;;;2291843;40;3627;-87
2023/08/07 01:03:34;1215629.00;4.05;2118.50;75624.00;0.25;131.48;;;;;14.50;3.30;;;;;;2272075;61;1412;-87
2023/08/07 01:06:01;383411.00;1.28;661.29;77987.00;0.26;135.56;;;;;14.70;3.30;;;;;;2278297;55;3732;-86
2023/08/07 01:08:29;391634.00;1.31;675.42;72871.00;0.24;126.72;;;;;14.40;3.60;;;;;;2276167;61;1573;-88
2023/08/07 01:16:03;1052143.00;3.51;1825.05;0.00;0.00;0.62;;;;;14.10;5.30;;;;;;2356760;39;3585;-86
2023/08/07 01:18:32;536683.00;1.79;925.01;37564.00;0.13;65.67;;;;;14.20;4.50;;;;;;2301701;55;3958;-88
2023/08/07 01:23:29;907915.00;3.03;1570.03;0.00;0.00;0.62;;;;;14.40;3.50;;;;;;2275836;61;1423;-86
2023/08/07 01:25:56;338326.00;1.13;583.80;0.00;0.00;0.62;;;;;14.40;3.80;;;;;;2320404;40;3771;-89
2023/08/07 01:28:32;141880.00;0.47;245.81;0.00;0.00;0.62;;;;;14.40;3.40;;;;;;2267990;61;1543;-86
2023/08/07 01:31:04;181155.00;0.60;313.48;0.00;0.00;0.62;;;;;14.40;4.20;;;;;;2268078;61;2012;-85
2023/08/07 01:33:38;165514.00;0.55;286.54;0.00;0.00;0.62;;;;;14.20;3.40;;;;;;2272662;55;3755;-86
2023/08/07 01:36:08;170700.00;0.57;295.47;0.00;0.00;0.62;;;;;13.90;5.30;;;;;;2272136;61;1206;-84
2023/08/07 01:38:38;126167.00;0.42;218.72;0.00;0.00;0.62;;;;;13.90;6.10;;;;;;2272052;61;1094;-86
2023/08/07 01:41:06;101334.00;0.34;175.87;0.00;0.00;0.62;;;;;14.00;5.20;;;;;;2272072;61;1537;-87
2023/08/07 01:43:33;82280.00;0.27;142.98;0.00;0.00;0.62;;;;;14.10;4.10;;;;;;2271998;61;1628;-85
2023/08/07 01:46:00;223985.00;0.75;387.20;0.00;0.00;0.62;;;;;13.90;4.80;;;;;;2271883;61;1621;-86
2023/08/07 01:48:27;796753.00;2.66;1375.46;50621.00;0.17;88.26;;;;;13.80;5.40;;;;;;2303666;40;3637;-86
2023/08/07 01:50:55;1415884.00;4.72;2485.82;197709.00;0.66;341.98;;;;;13.90;4.30;;;;;;2272085;61;2002;-89
2023/08/07 01:53:22;1604796.00;5.35;2841.91;184276.00;0.61;318.85;;;;;13.80;4.90;;;;;;2272021;61;1714;-86
2023/08/07 01:55:50;1714472.00;5.71;3053.58;218855.00;0.73;378.37;;;;;13.90;4.80;;;;;;2272006;61;1438;-87
2023/08/07 01:58:17;870972.00;2.90;1505.19;137373.00;0.46;238.04;;;;;14.10;3.90;;;;;;2272111;61;947;-87
2023/08/07 02:00:44;387118.00;1.29;667.66;71431.00;0.24;124.23;;;;;14.10;3.80;;;;;;2272040;61;1099;-87
2023/08/07 02:03:11;317299.00;1.06;547.66;0.00;0.00;0.62;;;;;14.40;2.80;;;;;;2271973;61;1376;-86
2023/08/07 02:05:38;202720.00;0.68;350.61;0.00;0.00;0.62;;;;;14.50;2.10;;;;;;2272090;61;1102;-87
2023/08/07 02:08:05;132417.00;0.44;229.50;0.00;0.00;0.62;;;;;14.50;2.10;;;;;;2272036;61;1596;-86
2023/08/07 02:10:32;112498.00;0.37;195.14;0.00;0.00;0.62;;;;;14.50;1.90;;;;;;2271998;61;928;-86
2023/08/07 02:13:00;117102.00;0.39;203.08;0.00;0.00;0.62;;;;;14.40;1.90;;;;;;2271859;61;2011;-88
2023/08/07 02:15:27;218302.00;0.73;377.42;0.00;0.00;0.62;;;;;14.10;3.00;;;;;;2271755;61;1036;-86
2023/08/07 02:17:54;77119.00;0.26;134.06;0.00;0.00;0.62;;;;;14.00;2.80;;;;;;2271998;61;1089;-87
2023/08/07 02:20:21;137190.00;0.46;237.73;0.00;0.00;0.62;;;;;14.10;2.70;;;;;;2272008;61;1025;-87
2023/08/07 02:22:47;246493.00;0.82;425.92;33555.00;0.11;58.74;;;;;14.00;3.50;;;;;;2272001;61;1249;-86
2023/08/07 02:25:14;0.00;0.00;0.62;0.00;0.00;0.62;;;;;14.00;3.10;;;;;;2272032;61;1129;-85
2023/08/07 02:27:41;21821.00;0.07;38.42;0.00;0.00;0.62;;;;;14.10;3.10;;;;;;2271961;61;1011;-84
2023/08/07 02:30:10;178466.00;0.59;308.85;0.00;0.00;0.62;;;;;14.20;2.80;;;;;;2271964;61;1146;-84
2023/08/07 02:32:37;104156.00;0.35;180.75;0.00;0.00;0.62;;;;;14.50;1.80;;;;;;2271757;61;2000;-84
2023/08/07 02:35:05;139138.00;0.46;241.08;0.00;0.00;0.62;;;;;14.50;1.80;;;;;;2271939;61;1157;-87
2023/08/07 02:37:32;1570434.00;5.23;2776.37;197651.00;0.66;341.88;;;;;14.50;1.00;;;;;;2271912;61;1113;-88
2023/08/07 02:39:58;1061738.00;3.54;1842.13;49465.00;0.16;86.26;;;;;14.60;1.00;;;;;;2272021;61;1515;-87
2023/08/07 02:42:25;1306267.00;4.35;2283.58;71179.00;0.24;123.80;;;;;14.30;2.00;;;;;;2271783;61;1792;-86
2023/08/07 02:44:52;393637.00;1.31;678.87;86742.00;0.29;150.68;;;;;14.00;2.50;;;;;;2271362;61;1038;-85
2023/08/07 02:47:20;211970.00;0.71;366.53;72943.00;0.24;126.85;;;;;14.20;1.90;;;;;;2271706;61;1084;-85
2023/08/07 02:49:47;245515.00;0.82;424.24;85411.00;0.28;148.38;;;;;14.10;1.80;;;;;;2271815;61;1175;-86
2023/08/07 02:52:14;0.00;0.00;0.62;0.00;0.00;0.62;;;;;14.30;1.60;;;;;;2271390;61;1927;-86
2023/08/07 02:54:41;190707.00;0.64;329.93;0.00;0.00;0.62;;;;;14.50;1.10;;;;;;2271593;61;1602;-85
2023/08/07 02:57:08;64321.00;0.21;111.95;0.00;0.00;0.62;;;;;14.60;1.00;;;;;;2271609;61;1105;-85
2023/08/07 02:59:35;300443.00;1.00;518.68;0.00;0.00;0.62;;;;;14.80;1.00;;;;;;2271683;61;1403;-85
2023/08/07 03:02:01;0.00;0.00;0.62;0.00;0.00;0.62;;;;;14.90;1.00;;;;;;2272086;61;2124;-86
2023/08/07 03:04:30;539413.00;1.80;929.71;30378.00;0.10;53.24;;;;;14.80;1.00;;;;;;2272257;61;1408;-87
2023/08/07 03:06:57;1414073.00;4.71;2482.45;107958.00;0.36;187.31;;;;;15.00;1.00;;;;;;2272009;61;1532;-86
2023/08/07 03:09:24;1166558.00;3.89;2029.87;118953.00;0.40;206.28;;;;;15.20;1.00;;;;;;2272045;61;1077;-85
2023/08/07 03:11:50;1293236.00;4.31;2259.73;190303.00;0.63;329.23;;;;;15.10;1.00;;;;;;2271903;61;1997;-87
2023/08/07 03:14:17;883061.00;2.94;1526.39;73815.00;0.25;128.35;;;;;14.90;1.00;;;;;;2271987;61;1381;-86
2023/08/07 03:16:45;167705.00;0.56;290.31;71504.00;0.24;124.36;;;;;14.80;1.00;;;;;;2272060;61;1078;-87
2023/08/07 03:19:12;335017.00;1.12;578.11;78911.00;0.26;137.16;;;;;14.80;1.00;;;;;;2272024;61;1142;-86
2023/08/07 03:21:40;32237.00;0.11;56.45;0.00;0.00;0.62;;;;;14.90;1.00;;;;;;2272032;61;1125;-86
2023/08/07 03:24:08;99388.00;0.33;172.52;0.00;0.00;0.62;;;;;14.90;1.00;;;;;;2271918;61;1746;-86
2023/08/07 03:26:34;692313.00;2.31;1193.91;184968.00;0.62;320.04;;;;;14.90;1.00;;;;;;2272091;61;1030;-86
2023/08/07 03:29:01;342988.00;1.14;591.81;64263.00;0.21;111.85;;;;;14.80;1.00;;;;;;2271742;61;1037;-86
2023/08/07 03:31:28;129240.00;0.43;224.02;0.00;0.00;0.62;;;;;14.80;1.00;;;;;;2271286;61;1927;-86
2023/08/07 03:33:55;177248.00;0.59;306.75;0.00;0.00;0.62;;;;;15.00;1.00;;;;;;2271775;61;1349;-87
2023/08/07 03:36:22;45009.00;0.15;78.55;0.00;0.00;0.62;;;;;14.80;1.00;;;;;;2271549;61;1160;-85
2023/08/07 03:38:50;215723.00;0.72;372.98;24023.00;0.08;42.24;;;;;14.70;1.00;;;;;;2271825;61;923;-86
2023/08/07 03:41:17;106947.00;0.36;185.56;34894.00;0.12;61.05;;;;;14.70;1.00;;;;;;2271807;61;1051;-86
2023/08/07 03:43:44;0.00;0.00;0.62;0.00;0.00;0.62;;;;;14.70;1.00;;;;;;2271711;61;1364;-85
2023/08/07 03:46:11;119889.00;0.40;207.89;0.00;0.00;0.62;;;;;14.70;1.00;;;;;;2271771;61;1125;-86
2023/08/07 03:48:39;1104144.00;3.68;1917.84;97430.00;0.32;169.14;;;;;14.50;1.00;;;;;;2271750;61;1192;-85
2023/08/07 03:51:08;1444805.00;4.82;2539.68;201862.00;0.67;349.13;;;;;14.30;1.00;;;;;;2271737;61;1093;-86
2023/08/07 03:53:34;816959.00;2.72;1410.72;175702.00;0.59;304.09;;;;;14.30;1.00;;;;;;2271398;61;1932;-87
2023/08/07 03:56:03;290594.00;0.97;501.75;72701.00;0.24;126.43;;;;;14.50;1.00;;;;;;2271641;61;1077;-86
2023/08/07 03:58:30;280492.00;0.93;484.38;81530.00;0.27;141.68;;;;;14.60;1.00;;;;;;2271569;61;1138;-86
2023/08/07 04:00:57;173495.00;0.58;300.29;73085.00;0.24;127.09;;;;;14.70;1.00;;;;;;2271668;61;1130;-87
2023/08/07 04:03:24;112871.00;0.38;195.78;0.00;0.00;0.62;;;;;14.70;1.00;;;;;;2271521;61;1265;-86
2023/08/07 04:05:54;60844.00;0.20;105.94;0.00;0.00;0.62;;;;;14.50;1.00;;;;;;2271501;61;1176;-87
2023/08/07 04:08:21;0.00;0.00;0.62;0.00;0.00;0.62;;;;;14.50;1.00;;;;;;2271893;61;970;-87
2023/08/07 04:10:59;16408.00;0.05;29.05;0.00;0.00;0.62;;;;;14.40;1.00;;;;;;2271466;61;1649;-88
2023/08/07 04:13:28;0.00;0.00;0.62;0.00;0.00;0.62;;;;;14.40;1.00;;;;;;2271674;61;1916;-86
2023/08/07 04:15:55;79474.00;0.26;138.13;0.00;0.00;0.62;;;;;14.40;1.00;;;;;;2271298;61;1699;-86
2023/08/07 04:18:22;336417.00;1.12;580.52;82222.00;0.27;142.88;;;;;14.10;1.00;;;;;;2271286;61;1085;-86
2023/08/07 04:20:54;31902.00;0.11;55.88;0.00;0.00;0.62;;;;;14.00;1.00;;;;;;2271234;61;1214;-86
2023/08/07 04:23:21;16039.00;0.05;28.41;0.00;0.00;0.62;;;;;14.00;1.00;;;;;;2271009;61;1451;-85
2023/08/07 04:25:49;8426.00;0.03;15.22;0.00;0.00;0.62;;;;;14.10;1.00;;;;;;2271384;61;1106;-86
2023/08/07 04:28:16;96911.00;0.32;168.24;0.00;0.00;0.62;;;;;14.40;1.00;;;;;;2271045;61;1114;-86
2023/08/07 04:30:45;0.00;0.00;0.62;0.00;0.00;0.62;;;;;14.50;1.00;;;;;;2271285;61;1128;-86
2023/08/07 04:33:12;155928.00;0.52;270.02;0.00;0.00;0.62;;;;;14.50;1.00;;;;;;2270992;61;1931;-86
2023/08/07 04:35:39;12463.00;0.04;22.22;0.00;0.00;0.62;;;;;14.40;1.00;;;;;;2271285;61;1628;-86
2023/08/07 04:38:06;919553.00;3.07;1590.49;49746.00;0.17;86.75;;;;;14.20;1.00;;;;;;2271643;61;1149;-87
2023/08/07 04:40:33;1391726.00;4.64;2440.99;165401.00;0.55;286.34;;;;;14.10;1.00;;;;;;2271877;61;1153;-85
2023/08/07 04:43:00;899796.00;3.00;1555.76;78868.00;0.26;137.08;;;;;14.20;1.00;;;;;;2272063;61;1291;-86
2023/08/07 04:45:27;1457976.00;4.86;2564.29;267583.00;0.89;462.19;;;;;14.00;1.00;;;;;;2271616;61;1123;-86
2023/08/07 04:47:55;252391.00;0.84;436.06;77495.00;0.26;134.71;;;;;14.20;1.00;;;;;;2271635;61;1125;-86
2023/08/07 04:50:22;241337.00;0.80;417.05;83649.00;0.28;145.34;;;;;14.20;1.00;;;;;;2271949;61;1177;-86
2023/08/07 04:52:49;97991.00;0.33;170.10;30421.00;0.10;53.31;;;;;14.40;1.00;;;;;;2272498;61;1923;-87
2023/08/07 04:55:16;0.00;0.00;0.62;0.00;0.00;0.62;;;;;14.10;1.00;;;;;;2272506;61;929;-86
2023/08/07 04:57:43;73261.00;0.24;127.40;0.00;0.00;0.62;;;;;14.10;1.00;;;;;;2272522;61;1000;-87
2023/08/07 05:00:11;0.00;0.00;0.62;0.00;0.00;0.62;;;;;14.00;1.00;;;;;;2272437;61;1108;-86
2023/08/07 05:02:37;314681.00;1.05;543.16;61035.00;0.20;106.27;;;;;13.80;1.00;;;;;;2272346;61;1304;-86
2023/08/07 05:05:09;33027.00;0.11;57.82;0.00;0.00;0.62;;;;;13.80;1.20;;;;;;2272451;61;1130;-88
2023/08/07 05:07:35;0.00;0.00;0.62;0.00;0.00;0.62;;;;;13.90;1.00;;;;;;2271939;61;1062;-85
2023/08/07 05:10:03;0.00;0.00;0.62;0.00;0.00;0.62;;;;;13.90;1.00;;;;;;2271930;61;1228;-88
2023/08/07 05:12:32;41763.00;0.14;72.94;0.00;0.00;0.62;;;;;13.90;1.40;;;;;;2271673;61;2010;-86
2023/08/07 05:14:58;36005.00;0.12;62.98;0.00;0.00;0.62;;;;;13.90;1.00;;;;;;2271730;61;1301;-86
2023/08/07 05:17:25;161682.00;0.54;279.94;0.00;0.00;0.62;;;;;14.00;1.00;;;;;;2271810;61;1126;-84
2023/08/07 05:19:52;0.00;0.00;0.62;0.00;0.00;0.62;;;;;13.90;1.70;;;;;;2271970;61;1101;-84
2023/08/07 05:22:20;93737.00;0.31;162.76;0.00;0.00;0.62;;;;;13.90;1.20;;;;;;2272116;61;1220;-82
2023/08/07 05:24:48;122247.00;0.41;211.96;0.00;0.00;0.62;;;;;13.80;1.60;;;;;;2272253;61;1074;-83
2023/08/07 05:27:16;0.00;0.00;0.62;0.00;0.00;0.62;;;;;13.90;1.70;;;;;;2272459;61;1146;-86
2023/08/07 05:29:44;171148.00;0.57;296.24;14380.00;0.05;25.54;;;;;13.90;1.70;;;;;;2272276;61;1047;-86
2023/08/07 05:32:11;725808.00;2.42;1252.02;18121.00;0.06;32.02;;;;;14.00;1.30;;;;;;2272227;61;2014;-86
2023/08/07 05:34:38;1168859.00;3.90;2034.02;74841.00;0.25;130.12;;;;;14.00;1.70;;;;;;2272288;61;1369;-86
2023/08/07 05:37:05;1046431.00;3.49;1814.88;98084.00;0.33;170.26;;;;;13.90;2.50;;;;;;2272056;61;1334;-87
2023/08/07 05:39:34;971431.00;3.24;1681.94;70852.00;0.24;123.23;;;;;13.90;1.70;;;;;;2272034;61;1097;-86
2023/08/07 05:42:01;1526390.00;5.09;2692.88;254898.00;0.85;440.37;;;;;13.90;2.40;;;;;;2272358;61;1109;-87
2023/08/07 05:44:28;465588.00;1.55;802.60;80971.00;0.27;140.71;;;;;13.90;2.60;;;;;;2272114;61;1400;-86
2023/08/07 05:46:55;430768.00;1.44;742.71;174545.00;0.58;302.09;;;;;14.10;1.80;;;;;;2272262;61;1072;-87
2023/08/07 05:49:22;382780.00;1.28;660.20;80260.00;0.27;139.49;;;;;14.30;1.40;;;;;;2272196;61;1131;-87
2023/08/07 05:51:49;72038.00;0.24;125.28;0.00;0.00;0.62;;;;;14.10;1.80;;;;;;2272080;61;1042;-87
2023/08/07 05:54:16;121109.00;0.40;210.00;4803.00;0.02;8.94;;;;;14.20;1.90;;;;;;2272153;61;2007;-86
2023/08/07 05:56:44;125708.00;0.42;217.93;17515.00;0.06;30.97;;;;;14.40;1.20;;;;;;2271774;61;1432;-86
2023/08/07 05:59:11;76847.00;0.26;133.59;0.00;0.00;0.62;;;;;14.50;1.10;;;;;;2271871;61;1202;-86
2023/08/07 06:01:38;0.00;0.00;0.62;0.00;0.00;0.62;;;;;14.80;1.00;;;;;;2271697;61;1099;-86
2023/08/07 06:04:05;23877.00;0.08;41.98;0.00;0.00;0.62;;;;;15.30;1.00;;;;;;2272099;61;1352;-86
2023/08/07 06:06:34;24227.00;0.08;42.59;0.00;0.00;0.62;;;;;15.50;1.00;;;;;;2272335;61;1096;-87
2023/08/07 06:09:01;0.00;0.00;0.62;0.00;0.00;0.62;;;;;15.70;1.00;;;;;;2272189;61;1092;-86
2023/08/07 06:11:28;3188.00;0.01;6.15;0.00;0.00;0.62;;;;;15.90;1.00;;;;;;2272238;61;1016;-86
2023/08/07 06:13:56;252319.00;0.84;435.94;0.00;0.00;0.62;;;;;16.00;1.00;;;;;;2271979;61;1998;-86
2023/08/07 06:16:23;30952.00;0.10;54.23;0.00;0.00;0.62;;;;;16.00;1.00;;;;;;2272063;61;1047;-86
2023/08/07 06:18:50;85203.00;0.28;148.02;0.00;0.00;0.62;;;;;15.80;1.00;;;;;;2272224;61;1555;-84
2023/08/07 06:21:17;99286.00;0.33;172.34;22761.00;0.08;40.05;;;;;15.90;1.00;;;;;;2272189;61;885;-86
2023/08/07 06:23:44;207355.00;0.69;358.58;66498.00;0.22;115.71;;;;;16.10;1.00;;;;;;2272391;61;1288;-86
2023/08/07 06:26:10;87016.00;0.29;151.15;15262.00;0.05;27.06;;;;;16.30;1.00;;;;;;2272294;61;1051;-85
2023/08/07 06:28:37;137749.00;0.46;238.69;0.00;0.00;0.62;;;;;16.20;1.00;;;;;;2272323;61;1080;-85
2023/08/07 06:31:07;201228.00;0.67;348.04;52156.00;0.17;90.91;;;;;16.10;1.00;;;;;;2272368;61;937;-85
2023/08/07 06:33:35;220141.00;0.73;380.59;13840.00;0.05;24.60;;;;;15.90;1.00;;;;;;2272291;61;1929;-85
2023/08/07 06:36:02;739.00;0.00;1.90;0.00;0.00;0.62;;;;;15.80;1.00;;;;;;2272335;61;1160;-85
2023/08/07 06:38:29;13671.00;0.05;24.31;0.00;0.00;0.62;;;;;15.70;1.00;;;;;;2272132;61;1125;-85
2023/08/07 06:40:56;0.00;0.00;0.62;0.00;0.00;0.62;;;;;15.80;1.00;;;;;;2272377;61;1149;-86
2023/08/07 06:43:23;393438.00;1.31;678.52;92231.00;0.31;160.16;;;;;16.10;1.00;;;;;;2272218;61;1256;-87
2023/08/07 06:45:51;903897.00;3.01;1562.97;103994.00;0.35;180.47;;;;;16.10;1.00;;;;;;2272294;61;1104;-85
2023/08/07 06:48:19;954000.00;3.18;1651.17;153446.00;0.51;265.75;;;;;16.00;1.00;;;;;;2272212;61;1119;-87
2023/08/07 06:50:47;1221510.00;4.07;2129.16;113594.00;0.38;197.03;;;;;16.30;1.00;;;;;;2272253;61;1427;-86
2023/08/07 06:53:14;1154526.00;3.85;2008.22;71389.00;0.24;124.16;;;;;16.20;1.00;;;;;;2272091;61;2008;-87
2023/08/07 06:55:43;1104447.00;3.68;1918.38;18544.00;0.06;32.75;;;;;16.50;1.00;;;;;;2272277;61;1168;-88
2023/08/07 06:58:10;1182606.00;3.94;2058.80;16109.00;0.05;28.53;;;;;16.60;1.00;;;;;;2272220;61;960;-87
2023/08/07 07:00:37;994946.00;3.32;1723.52;61161.00;0.20;106.48;;;;;16.70;1.00;;;;;;2272139;61;1093;-86
2023/08/07 07:03:05;1537328.00;5.12;2713.56;194696.00;0.65;336.79;;;;;17.10;1.00;;;;;;2272167;61;1365;-87
2023/08/07 07:05:34;1383015.00;4.61;2424.86;133068.00;0.44;230.62;;;;;17.50;1.00;;;;;;2272324;61;1129;-86
2023/08/07 07:08:01;471991.00;1.57;813.62;74274.00;0.25;129.15;;;;;17.70;1.00;;;;;;2272281;61;1084;-86
2023/08/07 07:10:28;213449.00;0.71;369.07;74880.00;0.25;130.19;;;;;17.80;1.00;;;;;;2272319;61;1081;-87
2023/08/07 07:12:55;271347.00;0.90;468.66;77346.00;0.26;134.45;;;;;17.70;1.00;;;;;;2272206;61;1920;-85
2023/08/07 07:15:21;224373.00;0.75;387.87;77363.00;0.26;134.48;;;;;17.80;1.00;;;;;;2272144;61;1031;-85
2023/08/07 07:17:48;277459.00;0.92;479.17;75219.00;0.25;130.78;;;;;17.80;1.00;;;;;;2272043;61;1083;-87
2023/08/07 07:20:15;231900.00;0.77;400.82;73928.00;0.25;128.55;;;;;18.10;1.00;;;;;;2271947;61;1097;-88
2023/08/07 07:22:43;279437.00;0.93;482.57;72271.00;0.24;125.68;;;;;18.70;1.00;;;;;;2282658;55;3765;-88
2023/08/07 07:25:11;340661.00;1.14;587.81;87869.00;0.29;152.63;;;;;18.70;1.00;;;;;;2285487;55;3754;-88
2023/08/07 07:27:38;311229.00;1.04;537.22;24738.00;0.08;43.47;;;;;18.80;1.00;;;;;;2272194;61;969;-86
2023/08/07 07:30:06;89623.00;0.30;155.66;0.00;0.00;0.62;;;;;19.00;1.00;;;;;;2274150;55;3778;-87
2023/08/07 07:32:35;127613.00;0.43;221.21;0.00;0.00;0.62;;;;;19.80;1.00;;;;;;2271784;61;1326;-87
2023/08/07 07:35:03;0.00;0.00;0.62;0.00;0.00;0.62;;;;;19.80;1.00;;;;;;2272193;61;1041;-89
2023/08/07 07:37:31;296002.00;0.99;511.05;0.00;0.00;0.62;;;;;19.70;1.00;;;;;;2272207;61;1284;-86
2023/08/07 07:39:59;173538.00;0.58;300.36;0.00;0.00;0.62;;;;;19.80;1.00;;;;;;2272276;61;902;-88
2023/08/07 07:44:54;986103.00;3.29;1707.87;0.00;0.00;0.62;;;;;19.30;1.00;;;;;;2277486;61;1419;-88
2023/08/07 07:47:21;14759.00;0.05;26.19;0.00;0.00;0.62;;;;;18.80;1.00;;;;;;2276130;61;1305;-87
2023/08/07 07:49:48;103292.00;0.34;179.25;0.00;0.00;0.62;;;;;19.40;1.00;;;;;;2276104;61;1079;-87
2023/08/07 07:52:15;137479.00;0.46;238.22;0.00;0.00;0.62;;;;;20.90;1.00;;;;;;2276089;61;850;-89
2023/08/07 07:54:42;127262.00;0.42;220.61;0.00;0.00;0.62;;;;;22.30;1.00;;;;;;2272063;61;1997;-86
2023/08/07 07:57:10;42387.00;0.14;74.02;0.00;0.00;0.62;;;;;23.40;1.00;;;;;;2271963;61;1135;-86
2023/08/07 07:59:37;147480.00;0.49;255.46;0.00;0.00;0.62;;;;;24.60;1.00;;;;;;2273785;55;3760;-87
2023/08/07 08:02:05;86913.00;0.29;150.98;0.00;0.00;0.62;;;;;25.60;1.00;;;;;;2267993;61;1584;-87
2023/08/07 08:04:32;190719.00;0.64;329.95;0.00;0.00;0.62;;;;;25.50;1.00;;;;;;2268031;61;1370;-87
2023/08/07 08:12:05;944197.00;3.15;1633.88;0.00;0.00;0.62;;;;;23.90;1.00;;;;;;1989117;40;3473;-89
2023/08/07 08:17:07;699273.00;2.33;1205.98;43673.00;0.15;76.24;;;;;22.60;1.00;;;;;;2310012;56;3637;-89
2023/08/07 08:19:33;55280.00;0.18;96.32;0.00;0.00;0.62;;;;;22.60;1.00;;;;;;2276770;61;1021;-88
2023/08/07 08:26:57;1880874.00;6.27;3382.52;43261.00;0.14;75.53;;;;;20.90;1.00;;;;;;2279501;61;1335;-88
2023/08/07 08:32:15;1783999.00;5.95;3189.83;199203.00;0.66;344.55;;;;;21.70;1.00;;;;;;2293944;55;3662;-89
2023/08/07 08:34:42;2594635.00;8.65;4925.38;122485.00;0.41;212.37;;;;;23.00;1.00;;;;;;810837;40;3483;-90
2023/08/07 08:42:07;1650498.00;5.50;2929.64;18108.00;0.06;31.99;;;;;21.70;1.00;;;;;;1989644;55;3641;-88
2023/08/07 08:47:04;120852296.00;402.84;71503528.00;46540.00;0.16;81.20;;;;;21.10;1.00;;;;;;2279010;61;1325;-89
2023/08/07 08:52:04;1741735.00;5.81;3106.81;150845.00;0.50;261.26;;;;;20.30;1.00;;;;;;2279476;61;1328;-88
2023/08/07 08:59:30;899670.00;3.00;1555.54;0.00;0.00;0.62;;;;;22.70;1.00;;;;;;2283324;61;1312;-90
2023/08/07 09:09:30;1205600.00;4.02;2100.35;0.00;0.00;0.62;;;;;22.80;1.00;;;;;;2278935;61;1305;-91
2023/08/07 09:49:33;999735.00;3.33;1732.00;0.00;0.00;0.62;;;;;23.30;1.00;;;;;;2030876;40;3432;-88
2023/08/07 10:36:59;1252025.00;4.17;2184.57;0.00;0.00;0.62;;;;;23.10;1.00;;;;;;2505482;55;3553;31
2023/08/07 12:04:38;84681.00;0.28;147.12;0.00;0.00;0.62;;;;;21.40;1.00;;;;;;2469344;55;2148;-88
2023/08/07 12:12:03;1133412.00;3.78;1970.28;0.00;0.00;0.62;;;;;21.70;1.00;;;;;;2515238;40;3445;31
2023/08/07 12:37:06;1229719.00;4.10;2144.05;0.00;0.00;0.62;;;;;20.90;1.00;;;;;;2515512;40;3432;31
2023/08/07 12:49:46;1120050.00;3.73;1946.32;0.00;0.00;0.62;;;;;20.80;1.00;;;;;;2504593;55;3578;31
2023/08/07 12:54:43;1486689.00;4.96;2618.10;0.00;0.00;0.62;;;;;20.30;1.00;;;;;;2513525;55;3637;31
2023/08/07 12:57:10;1662488.00;5.54;2952.77;102048.00;0.34;177.11;;;;;20.40;1.00;;;;;;1985070;56;3625;-86
2023/08/07 12:59:36;75430.00;0.25;131.14;0.00;0.00;0.62;;;;;20.80;1.00;;;;;;2276654;61;955;-88
2023/08/07 13:02:04;29448.00;0.10;51.63;0.00;0.00;0.62;;;;;21.50;1.00;;;;;;2276665;61;1655;-87
2023/08/07 13:04:33;55268.00;0.18;96.30;0.00;0.00;0.62;;;;;21.70;1.00;;;;;;2276683;61;1351;-88
2023/08/07 13:06:59;152394.00;0.51;263.93;21841.00;0.07;38.46;;;;;22.00;1.00;;;;;;2276727;61;1027;-87
2023/08/07 13:09:26;0.00;0.00;0.62;0.00;0.00;0.62;;;;;22.30;1.00;;;;;;2276677;61;2215;-88
2023/08/07 13:11:54;71664.00;0.24;124.64;0.00;0.00;0.62;;;;;22.60;1.00;;;;;;2276718;61;1082;-89
2023/08/07 13:14:21;9224.00;0.03;16.60;0.00;0.00;0.62;;;;;22.60;1.00;;;;;;2276610;61;1919;-88
2023/08/07 13:16:49;167668.00;0.56;290.25;0.00;0.00;0.62;;;;;22.20;1.00;;;;;;2276668;61;1057;-86
2023/08/07 13:19:16;15969.00;0.05;28.29;0.00;0.00;0.62;;;;;21.90;1.00;;;;;;2276625;61;1590;-86
2023/08/07 13:21:43;160985.00;0.54;278.74;0.00;0.00;0.62;;;;;21.90;1.00;;;;;;2276666;61;1108;-87
2023/08/07 13:24:09;1459635.00;4.87;2567.39;110945.00;0.37;192.46;;;;;22.00;1.00;;;;;;2276569;61;1539;-87
2023/08/07 13:26:37;596915.00;1.99;1028.89;65636.00;0.22;114.22;;;;;22.20;1.00;;;;;;2276662;61;1581;-88
2023/08/07 13:29:05;224846.00;0.75;388.68;74336.00;0.25;129.25;;;;;22.40;1.00;;;;;;2276681;61;1118;-87
2023/08/07 13:31:32;269024.00;0.90;464.67;74727.00;0.25;129.93;;;;;22.50;1.00;;;;;;2276603;61;1110;-88
2023/08/07 14:51:39;1499502.00;5.00;2642.18;0.00;0.00;0.62;;;;;23.10;1.00;;;;;;831372;40;3390;-88
2023/08/07 15:09:16;1092182.00;3.64;1896.45;0.00;0.00;0.62;;;;;21.20;1.00;;;;;;2278830;61;1025;-91
2023/08/07 15:14:11;1107950.00;3.69;1924.65;0.00;0.00;0.62;;;;;21.00;1.00;;;;;;2278256;61;1888;-91
2023/08/07 16:21:41;2880510.00;9.60;5616.90;67797.00;0.23;117.95;;;;;21.80;1.00;;;;;;2278019;61;1005;-92
2023/08/07 18:58:41;1590658.00;5.30;2814.90;60523.00;0.20;105.38;;;;;21.40;1.00;;;;;;2003338;55;3582;-88
2023/08/07 19:13:49;1428161.00;4.76;2508.66;114499.00;0.38;198.59;;;;;21.80;1.00;;;;;;2423115;40;3641;31
2023/08/07 19:23:42;90823.00;0.30;157.73;0.00;0.00;0.62;;;;;21.30;1.00;;;;;;2279440;61;1406;-88
2023/08/07 19:26:09;629775.00;2.10;1085.66;154907.00;0.52;268.26;;;;;21.20;1.00;;;;;;2276092;61;1589;-89
2023/08/07 19:33:36;978399.00;3.26;1694.25;0.00;0.00;0.62;;;;;21.30;1.00;;;;;;2277614;61;1385;-88
2023/08/07 21:06:36;1482039.00;4.94;2609.37;8576.00;0.03;15.48;;;;;20.70;1.00;;;;;;2510668;40;3543;31
2023/08/07 22:29:12;1212375.00;4.04;2112.61;0.00;0.00;0.62;;;;;19.00;1.00;;;;;;2334475;40;3614;-86
2023/08/07 22:34:19;1474975.00;4.92;2596.12;42451.00;0.14;74.13;;;;;19.10;1.00;;;;;;1224721;40;3487;-89
2023/08/07 23:17:23;1435193.00;4.78;2521.76;61558.00;0.21;107.17;;;;;18.30;1.00;;;;;;2315508;55;3594;-86
